Terminal Aerodrome Forecast
Issued by NWS Charleston, WV

Current Version | Previous Version | Text Only | Print | Product List | Glossary Off
Versions: 1 2 3 4 5 6 7 8 9 10 11 12 13 14 15 16 17 18 19 20 21 22

000
FTUS41 KRLX 171700
TAFEKN
TAF
KEKN 171736Z 1718/1818 00000KT P6SM SCT035
     FM180300 00000KT 4SM BR SCT035
     FM180400 00000KT 3/4SM BR SCT001 SCT035
     FM180500 00000KT 1/2SM FG VV001
     FM181300 00000KT 2SM BR BKN003
     FM181400 00000KT P6SM SCT035=

USA.gov is the U.S. government's official web portal to all federal, state and local government web resources and services.